createdAt,value
2022-08-09T00:00:53.740Z,4.10
2022-08-09T00:04:05.564Z,6.18
2022-08-09T00:07:17.688Z,6.50
2022-08-09T00:10:21.479Z,7.25
2022-08-09T00:13:25.665Z,5.28
2022-08-09T00:16:36.736Z,7.40
2022-08-09T00:19:39.664Z,7.10
2022-08-09T00:22:40.749Z,9.85
2022-08-09T00:25:45.656Z,5.32
2022-08-09T00:28:53.645Z,5.53
2022-08-09T00:31:59.833Z,6.72
2022-08-09T00:35:01.743Z,6.25
2022-08-09T00:38:03.616Z,8.43
2022-08-09T00:41:05.758Z,8.38
2022-08-09T00:44:25.524Z,5.95
2022-08-09T00:47:29.759Z,6.65
2022-08-09T00:50:38.643Z,9.27
2022-08-09T00:53:39.621Z,7.20
2022-08-09T00:56:40.663Z,5.20
2022-08-09T00:59:46.329Z,6.40
2022-08-09T01:02:50.661Z,8.32
2022-08-09T01:06:17.527Z,5.38
2022-08-09T01:09:46.883Z,7.13
2022-08-09T01:12:54.682Z,5.38
2022-08-09T01:15:59.672Z,6.65
2022-08-09T01:19:04.878Z,6.60
2022-08-09T01:22:12.272Z,6.07
2022-08-09T01:25:27.793Z,4.07
2022-08-09T01:28:29.770Z,6.38
2022-08-09T01:32:29.448Z,5.97
2022-08-09T01:34:58.677Z,5.70
2022-08-09T01:38:07.934Z,9.13
2022-08-09T01:41:38.684Z,5.82
2022-08-09T01:44:57.692Z,7.85
2022-08-09T01:48:00.693Z,8.50
2022-08-09T01:51:08.690Z,13.20
2022-08-09T01:54:13.636Z,10.50
2022-08-09T01:57:22.652Z,9.70
2022-08-09T02:00:35.741Z,10.50
2022-08-09T02:03:37.639Z,12.77
2022-08-09T02:06:59.085Z,15.23
2022-08-09T02:10:08.683Z,16.95
2022-08-09T02:13:12.693Z,21.10
2022-08-09T02:16:16.816Z,13.20
2022-08-09T02:19:18.795Z,12.00
2022-08-09T02:22:34.952Z,11.05
2022-08-09T02:25:42.327Z,18.08
2022-08-09T02:28:59.529Z,18.27
2022-08-09T02:32:01.755Z,13.90
2022-08-09T02:35:10.261Z,11.02
2022-08-09T02:38:27.974Z,13.48
2022-08-09T02:41:38.672Z,11.30
2022-08-09T02:44:44.663Z,12.82
2022-08-09T02:47:58.960Z,17.38
2022-08-09T02:51:08.885Z,12.35
2022-08-09T02:54:15.652Z,10.88
2022-08-09T02:57:23.137Z,11.93
2022-08-09T03:00:26.432Z,15.00
2022-08-09T03:04:12.296Z,10.48
2022-08-09T03:06:50.722Z,12.88
2022-08-09T03:09:56.774Z,13.02
2022-08-09T03:13:02.751Z,16.33
2022-08-09T03:16:10.770Z,12.10
2022-08-09T03:19:14.444Z,10.75
2022-08-09T03:22:29.895Z,11.52
2022-08-09T03:25:58.956Z,13.57
2022-08-09T03:28:55.132Z,15.43
2022-08-09T03:31:59.445Z,12.40
2022-08-09T03:35:03.116Z,15.13
2022-08-09T03:38:28.803Z,13.48
2022-08-09T03:41:45.824Z,15.75
2022-08-09T03:44:49.694Z,10.43
2022-08-09T03:47:50.777Z,15.55
2022-08-09T03:50:54.707Z,11.43
2022-08-09T03:53:59.018Z,17.65
2022-08-09T03:57:00.851Z,17.05
2022-08-09T04:00:06.715Z,14.25
2022-08-09T04:03:19.750Z,22.85
2022-08-09T04:06:25.729Z,20.58
2022-08-09T04:09:47.488Z,14.52
2022-08-09T04:13:01.017Z,15.45
2022-08-09T04:16:20.257Z,14.63
2022-08-09T04:19:42.581Z,13.73
2022-08-09T04:22:44.380Z,15.20
2022-08-09T04:25:51.642Z,12.18
2022-08-09T04:28:46.948Z,10.95
2022-08-09T04:31:47.819Z,12.30
2022-08-09T04:34:54.349Z,14.10
2022-08-09T04:37:58.763Z,18.05
2022-08-09T04:41:04.738Z,14.48
2022-08-09T04:44:11.732Z,19.08
2022-08-09T04:47:15.732Z,18.13
2022-08-09T04:50:16.726Z,16.15
2022-08-09T04:53:20.739Z,16.30
2022-08-09T04:56:26.098Z,15.73
2022-08-09T04:59:26.751Z,13.65
2022-08-09T05:02:31.102Z,16.10
2022-08-09T05:05:51.726Z,14.55
2022-08-09T05:08:53.787Z,14.27
2022-08-09T05:12:01.831Z,12.98
2022-08-09T05:15:03.595Z,14.55
2022-08-09T05:18:38.365Z,10.50
2022-08-09T05:21:29.844Z,10.07
2022-08-09T05:24:31.820Z,8.93
2022-08-09T05:27:32.808Z,10.75
2022-08-09T05:30:41.699Z,9.98
2022-08-09T05:33:48.748Z,10.85
2022-08-09T05:36:49.754Z,8.38
2022-08-09T05:39:54.845Z,10.05
2022-08-09T05:42:55.808Z,12.07
2022-08-09T05:45:55.713Z,8.88
2022-08-09T05:48:59.380Z,9.52
2022-08-09T05:52:00.809Z,9.20
2022-08-09T05:55:06.862Z,6.68
2022-08-09T05:58:07.838Z,7.80
2022-08-09T06:01:18.764Z,8.32
2022-08-09T06:04:23.430Z,12.43
2022-08-09T06:07:24.949Z,8.68
2022-08-09T06:10:27.852Z,13.30
2022-08-09T06:13:21.868Z,7.45
2022-08-09T06:16:22.898Z,7.43
2022-08-09T06:19:23.859Z,8.68
2022-08-09T06:22:28.985Z,13.32
2022-08-09T06:25:29.852Z,11.93
2022-08-09T06:28:31.901Z,6.32
2022-08-09T06:31:40.008Z,11.02
2022-08-09T06:34:53.848Z,9.50
2022-08-09T06:38:05.889Z,6.88
2022-08-09T06:41:18.671Z,6.32
2022-08-09T06:44:21.044Z,5.68
2022-08-09T06:47:21.821Z,9.52
2022-08-09T06:50:24.943Z,8.30
2022-08-09T06:53:26.825Z,8.27
2022-08-09T06:56:33.882Z,6.93
2022-08-09T07:00:52.913Z,6.38
2022-08-09T07:02:48.947Z,6.47
2022-08-09T07:05:58.148Z,5.88
2022-08-09T07:09:04.898Z,6.75
2022-08-09T07:12:05.825Z,6.13
2022-08-09T07:16:39.460Z,3.85
2022-08-09T07:18:28.072Z,10.40
2022-08-09T07:21:31.882Z,9.90
2022-08-09T07:24:40.099Z,10.52
2022-08-09T07:27:53.134Z,4.60
2022-08-09T07:30:54.847Z,3.47
2022-08-09T07:33:56.149Z,7.93
2022-08-09T07:37:03.854Z,4.88
2022-08-09T07:40:05.040Z,7.45
2022-08-09T07:43:16.632Z,2.22
2022-08-09T07:46:19.407Z,5.63
2022-08-09T07:49:20.903Z,2.88
2022-08-09T07:52:21.878Z,3.15
2022-08-09T07:55:24.863Z,5.97
2022-08-09T07:58:31.062Z,5.50
2022-08-09T08:01:33.112Z,11.27
2022-08-09T08:04:35.912Z,1.75
2022-08-09T08:08:44.515Z,3.85
2022-08-09T08:11:15.346Z,4.30
2022-08-09T08:14:21.038Z,2.33
2022-08-09T08:17:52.376Z,4.65
2022-08-09T08:20:45.971Z,5.90
2022-08-09T08:23:54.861Z,6.22
2022-08-09T08:29:57.879Z,5.53
2022-08-09T08:32:58.892Z,4.05
2022-08-09T08:36:03.902Z,4.20
2022-08-09T08:39:05.001Z,7.30
2022-08-09T08:42:06.898Z,2.60
2022-08-09T08:45:13.881Z,5.78
2022-08-09T08:48:19.207Z,5.87
2022-08-09T08:51:19.884Z,5.47
2022-08-09T08:54:29.998Z,4.90
2022-08-09T08:57:23.879Z,4.35
2022-08-09T09:00:29.860Z,4.60
2022-08-09T09:03:33.295Z,4.35
2022-08-09T09:06:39.927Z,14.35
2022-08-09T09:09:59.523Z,5.28
2022-08-09T09:13:09.301Z,9.15
2022-08-09T09:16:10.974Z,2.92
2022-08-09T09:19:40.909Z,7.53
2022-08-09T09:22:38.125Z,8.23
2022-08-09T09:26:04.291Z,3.58
2022-08-09T09:29:16.800Z,6.07
2022-08-09T09:32:18.935Z,3.00
2022-08-09T09:35:35.080Z,2.78
2022-08-09T09:39:06.028Z,1.80
2022-08-09T09:42:12.110Z,6.80
2022-08-09T09:45:26.566Z,5.75
2022-08-09T09:48:30.970Z,4.53
2022-08-09T09:51:40.406Z,8.43
2022-08-09T09:54:55.974Z,3.30
2022-08-09T09:58:20.097Z,3.70
2022-08-09T10:01:37.989Z,5.97
2022-08-09T10:04:39.140Z,4.07
2022-08-09T10:08:11.144Z,3.75
2022-08-09T10:11:06.957Z,3.67
2022-08-09T10:14:47.759Z,2.33
2022-08-09T10:17:56.085Z,6.72
2022-08-09T10:20:59.178Z,2.58
2022-08-09T10:24:01.049Z,7.60
2022-08-09T10:27:10.140Z,5.45
2022-08-09T10:34:08.589Z,4.40
2022-08-09T10:37:04.037Z,4.03
2022-08-09T10:40:12.184Z,5.70
2022-08-09T10:43:36.134Z,4.57
2022-08-09T10:48:16.333Z,5.15
2022-08-09T10:51:13.664Z,2.83
2022-08-09T10:54:19.048Z,4.10
2022-08-09T10:57:25.066Z,3.67
2022-08-09T11:00:56.868Z,2.10
2022-08-09T11:04:31.352Z,3.58
2022-08-09T11:07:58.556Z,6.18
2022-08-09T11:10:54.785Z,4.78
2022-08-09T11:13:57.165Z,4.57
2022-08-09T11:16:59.091Z,2.88
2022-08-09T11:20:22.642Z,3.28
2022-08-09T11:23:30.144Z,3.50
2022-08-09T11:26:54.742Z,5.75
2022-08-09T11:30:37.946Z,2.28
2022-08-09T11:34:07.073Z,2.08
2022-08-09T11:37:18.033Z,2.67
2022-08-09T11:40:31.187Z,4.53
2022-08-09T11:43:39.116Z,3.15
2022-08-09T11:46:40.161Z,4.20
2022-08-09T11:50:53.620Z,3.70
2022-08-09T11:54:01.640Z,7.00
2022-08-09T11:57:10.964Z,3.38
2022-08-09T12:00:24.739Z,6.22
2022-08-09T12:03:55.171Z,5.55
2022-08-09T12:06:53.285Z,4.70
2022-08-09T12:10:00.262Z,5.75
2022-08-09T12:14:08.992Z,5.13
2022-08-09T12:16:41.158Z,2.63
2022-08-09T12:19:46.181Z,3.42
2022-08-09T12:22:51.121Z,5.05
2022-08-09T12:25:53.201Z,6.85
2022-08-09T12:29:29.377Z,3.15
2022-08-09T12:32:24.083Z,3.70
2022-08-09T12:35:37.771Z,6.18
2022-08-09T12:38:43.158Z,3.97
2022-08-09T12:41:47.175Z,13.50
2022-08-09T12:44:54.601Z,8.30
2022-08-09T12:47:55.110Z,9.48
2022-08-09T12:50:57.245Z,4.47
2022-08-09T12:54:10.123Z,3.53
2022-08-09T12:57:15.197Z,3.53
2022-08-09T13:00:33.189Z,3.80
2022-08-09T13:03:58.769Z,4.30
2022-08-09T13:07:02.178Z,4.43
2022-08-09T13:10:15.143Z,4.70
2022-08-09T13:13:18.126Z,7.35
2022-08-09T13:16:23.160Z,3.30
2022-08-09T13:20:10.247Z,3.08
2022-08-09T13:24:06.845Z,4.93
2022-08-09T13:26:53.155Z,4.45
2022-08-09T13:31:11.123Z,2.50
2022-08-09T13:33:53.729Z,4.38
2022-08-09T13:36:55.134Z,1.85
2022-08-09T13:41:54.455Z,4.93
2022-08-09T13:43:19.085Z,25.48
2022-08-09T13:47:17.862Z,3.50
2022-08-09T13:49:57.835Z,3.58
2022-08-09T13:53:01.238Z,3.72
2022-08-09T13:56:02.177Z,2.70
2022-08-09T13:59:03.165Z,5.25
2022-08-09T14:02:04.277Z,2.95
2022-08-09T14:05:05.343Z,4.05
2022-08-09T14:08:06.228Z,13.02
2022-08-09T14:11:15.903Z,1.92
2022-08-09T14:14:26.089Z,2.20
2022-08-09T14:17:32.696Z,3.25
2022-08-09T14:20:51.152Z,3.30
2022-08-09T14:23:54.506Z,2.63
2022-08-09T14:27:01.335Z,3.50
2022-08-09T14:30:34.459Z,2.28
2022-08-09T14:33:29.197Z,2.88
2022-08-09T14:36:35.253Z,3.45
2022-08-09T14:39:47.537Z,3.63
2022-08-09T14:42:49.209Z,3.65
2022-08-09T14:46:54.054Z,1.85
2022-08-09T14:49:23.614Z,2.80
2022-08-09T14:52:25.509Z,3.00
2022-08-09T14:55:31.920Z,5.78
2022-08-09T14:58:33.248Z,4.38
2022-08-09T15:01:34.227Z,3.03
2022-08-09T15:04:35.367Z,2.50
2022-08-09T15:07:36.257Z,4.57
2022-08-09T15:10:38.432Z,5.13
2022-08-09T15:13:48.375Z,6.10
2022-08-09T15:17:00.422Z,6.38
2022-08-09T15:20:05.412Z,2.00
2022-08-09T15:24:01.703Z,5.57
2022-08-09T15:26:37.335Z,2.97
2022-08-09T15:30:55.982Z,4.70
2022-08-09T15:33:09.206Z,3.38
2022-08-09T15:36:16.236Z,7.03
2022-08-09T15:39:17.324Z,3.53
2022-08-09T15:42:18.850Z,5.65
2022-08-09T15:45:21.710Z,2.38
2022-08-09T15:48:31.704Z,2.40
2022-08-09T15:52:04.086Z,4.82
2022-08-09T15:54:53.372Z,2.83
2022-08-09T15:57:55.334Z,3.35
2022-08-09T16:00:56.699Z,5.05
2022-08-09T16:03:57.358Z,2.50
2022-08-09T16:06:59.396Z,4.22
2022-08-09T16:10:05.105Z,3.17
2022-08-09T16:13:20.773Z,3.20
2022-08-09T16:16:28.245Z,4.28
2022-08-09T16:19:30.244Z,3.15
2022-08-09T16:22:42.137Z,6.15
2022-08-09T16:25:43.484Z,3.83
2022-08-09T16:28:50.452Z,4.57
2022-08-09T16:32:19.978Z,10.27
2022-08-09T16:35:55.692Z,5.18
2022-08-09T16:38:51.632Z,4.35
2022-08-09T16:42:02.814Z,3.95
2022-08-09T16:45:25.287Z,2.50
2022-08-09T16:48:40.587Z,3.00
2022-08-09T16:51:54.022Z,3.75
2022-08-09T16:55:12.005Z,3.28
2022-08-09T16:58:35.658Z,13.52
2022-08-09T17:01:36.410Z,3.97
2022-08-09T17:04:37.280Z,6.70
2022-08-09T17:08:46.923Z,5.28
2022-08-09T17:11:00.271Z,3.42
2022-08-09T17:14:02.225Z,4.30
2022-08-09T17:17:03.301Z,1.98
2022-08-09T17:20:29.264Z,3.95
2022-08-09T17:23:37.138Z,4.07
2022-08-09T17:26:51.998Z,3.35
2022-08-09T17:29:55.371Z,3.67
2022-08-09T17:32:57.448Z,4.93
2022-08-09T17:36:01.313Z,2.88
2022-08-09T17:39:02.379Z,3.92
2022-08-09T17:42:03.373Z,2.63
2022-08-09T17:45:06.479Z,2.85
2022-08-09T17:48:07.561Z,2.63
2022-08-09T17:51:17.836Z,5.70
2022-08-09T17:54:25.362Z,3.83
2022-08-09T17:58:03.357Z,3.40
2022-08-09T18:00:51.438Z,3.97
2022-08-09T18:03:55.414Z,4.15
2022-08-09T18:06:56.377Z,8.73
2022-08-09T18:10:05.025Z,4.88
2022-08-09T18:13:39.644Z,2.83
2022-08-09T18:16:29.237Z,6.03
2022-08-09T18:20:54.500Z,3.72
2022-08-09T18:22:52.506Z,2.22
2022-08-09T18:25:57.642Z,4.50
2022-08-09T18:30:41.834Z,3.65
2022-08-09T18:32:20.358Z,6.05
2022-08-09T18:35:48.040Z,3.40
2022-08-09T18:38:42.384Z,4.38
2022-08-09T18:41:52.811Z,4.65
2022-08-09T18:44:55.437Z,2.45
2022-08-09T18:48:01.387Z,4.15
2022-08-09T18:51:14.425Z,4.43
2022-08-09T18:54:28.190Z,4.00
2022-08-09T18:57:38.412Z,5.60
2022-08-09T19:00:44.401Z,3.28
2022-08-09T19:04:01.446Z,7.40
2022-08-09T19:07:07.391Z,3.97
2022-08-09T19:10:16.998Z,4.47
2022-08-09T19:13:38.048Z,7.03
2022-08-09T19:16:42.383Z,5.97
2022-08-09T19:19:51.439Z,5.82
2022-08-09T19:23:01.450Z,3.58
2022-08-09T19:26:05.275Z,3.20
2022-08-09T19:29:15.054Z,3.63
2022-08-09T19:32:18.416Z,2.88
2022-08-09T19:35:20.567Z,3.33
2022-08-09T19:38:27.464Z,3.88
2022-08-09T19:41:33.210Z,6.07
2022-08-09T19:44:36.481Z,4.35
2022-08-09T19:47:38.315Z,7.45
2022-08-09T19:50:51.324Z,5.95
2022-08-09T19:53:55.580Z,6.72
2022-08-09T19:56:57.556Z,3.83
2022-08-09T20:00:06.890Z,4.78
2022-08-09T20:04:12.548Z,3.88
2022-08-09T20:06:31.519Z,6.13
2022-08-09T20:09:44.334Z,3.45
2022-08-09T20:12:46.545Z,8.23
2022-08-09T20:16:36.349Z,6.50
2022-08-09T20:19:49.002Z,3.85
2022-08-09T20:22:32.124Z,3.10
2022-08-09T20:25:51.553Z,2.90
2022-08-09T20:28:52.425Z,4.45
2022-08-09T20:32:31.080Z,4.05
2022-08-09T20:35:15.933Z,11.02
2022-08-09T20:38:23.877Z,5.38
2022-08-09T20:41:35.156Z,4.07
2022-08-09T20:44:37.626Z,2.80
2022-08-09T20:47:48.423Z,8.18
2022-08-09T20:50:54.271Z,5.68
2022-08-09T20:53:51.523Z,7.22
2022-08-09T20:56:53.895Z,5.05
2022-08-09T21:00:31.055Z,7.15
2022-08-09T21:03:16.791Z,2.47
2022-08-09T21:06:22.519Z,2.50
2022-08-09T21:09:41.788Z,5.40
2022-08-09T21:15:58.546Z,4.50
2022-08-09T21:20:02.267Z,3.45
2022-08-09T21:22:35.592Z,2.88
2022-08-09T21:25:59.791Z,4.03
2022-08-09T21:29:00.514Z,2.42
2022-08-09T21:32:01.537Z,3.72
2022-08-09T21:35:07.669Z,5.03
2022-08-09T21:38:09.552Z,5.97
2022-08-09T21:41:10.551Z,8.07
2022-08-09T21:44:33.340Z,5.03
2022-08-09T21:47:35.807Z,4.07
2022-08-09T21:50:38.737Z,2.83
2022-08-09T21:53:40.613Z,4.30
2022-08-09T21:56:54.027Z,3.55
2022-08-09T21:59:55.555Z,6.20
2022-08-09T22:03:12.556Z,4.93
2022-08-09T22:06:26.498Z,4.70
2022-08-09T22:09:27.569Z,6.05
2022-08-09T22:12:31.354Z,5.32
2022-08-09T22:15:35.007Z,4.60
2022-08-09T22:18:37.080Z,3.50
2022-08-09T22:21:45.159Z,4.10
2022-08-09T22:26:04.478Z,4.22
2022-08-09T22:28:12.688Z,2.28
2022-08-09T22:31:21.581Z,3.35
2022-08-09T22:34:25.806Z,4.90
2022-08-09T22:37:28.516Z,3.60
2022-08-09T22:40:40.689Z,5.90
2022-08-09T22:44:01.182Z,4.53
2022-08-09T22:48:14.809Z,3.08
2022-08-09T22:50:25.610Z,4.10
2022-08-09T22:53:26.538Z,4.80
2022-08-09T22:56:44.590Z,11.13
2022-08-09T22:59:57.166Z,7.32
2022-08-09T23:02:59.604Z,8.40
2022-08-09T23:06:00.629Z,3.85
2022-08-09T23:09:01.566Z,6.63
2022-08-09T23:12:02.609Z,4.50
2022-08-09T23:15:03.728Z,4.53
2022-08-09T23:18:04.596Z,4.95
2022-08-09T23:20:58.818Z,6.85
2022-08-09T23:24:05.691Z,6.90
2022-08-09T23:27:07.568Z,6.70
2022-08-09T23:30:08.601Z,7.65
2022-08-09T23:33:09.621Z,5.10
2022-08-09T23:36:10.544Z,9.05
2022-08-09T23:39:11.628Z,5.38
2022-08-09T23:42:13.643Z,6.32
2022-08-09T23:45:37.247Z,5.47
2022-08-09T23:48:35.616Z,8.75
2022-08-09T23:51:36.624Z,5.82
2022-08-09T23:54:37.635Z,8.27
2022-08-09T23:57:47.533Z,4.45
